CheckWX is a tool to help pilots better visualize weather data.  It is not intended as a substitute for an official pre-flight weather briefing.

12:37:17 UTC

EGTE METAR
Exeter International Airport
Exeter, United Kingdom
Current

17 mins ago

EGTE 131220Z 27016G29KT 240V300 9999 FEW030 09/02 Q0987
Observed
Dec-13 @ 12:20 UTC
Wind
  • 270° at 16 KTS
  • Gusting to 29 KTS
Visibility
10,000+ meters
Flight Rules
VFR
Cloud Levels
  • Few at 3,000' AGL
Temperature
C / 48°F
Dewpoint
C / 36°F
Humidity
62%
Altimeter
29.14" Hg
Pressure
986.92 hPa
Previous

47 mins ago

EGTE 131150Z 27017G32KT 9999 VCSH FEW030CB 08/02 Q0987
Observed
Dec-13 @ 11:50 UTC
Wind
  • 270° at 17 KTS
  • Gusting to 32 KTS
Visibility
10,000+ meters
Flight Rules
VFR
Cloud Levels
  • Few at 3,000' AGL
Temperature
C / 46°F
Dewpoint
C / 36°F
Humidity
66%
Altimeter
29.14" Hg
Pressure
986.92 hPa
Previous

1 hour ago

EGTE 131120Z 27016G29KT 9999 FEW025CB 09/03 Q0987
Observed
Dec-13 @ 11:20 UTC
Wind
  • 270° at 16 KTS
  • Gusting to 29 KTS
Visibility
10,000+ meters
Flight Rules
VFR
Cloud Levels
  • Few at 2,500' AGL
Temperature
C / 48°F
Dewpoint
C / 37°F
Humidity
66%
Altimeter
29.14" Hg
Pressure
986.92 hPa